VIV12B MMMY-MGGT
Flight info
| Callsign | VIV12B |
|---|---|
| Flight time | 1h 58m |
| Altitude | 37000 |
| Route | KERGA1B KERGA UJ81 ITBEN UJ38 CVM UJ15 TAM UT61 VER UA552 GABEN GABEN2C |
| Aircraft | A320/M-SDE3FGHIRWY/LB1 |
Departure
| Time | 2026-04-26 12:04 |
|---|---|
| Airport | Monterrey International Airport (MMMY) |
Arrival
| Time | 2026-04-26 14:02 |
|---|---|
| Airport | La Aurora International Airport (MGGT) |
| Time | Latitude | Longitude | Altitude | Speed | Heading |
|---|---|---|---|---|---|
| 2026-04-26 11:52 | 25.77872 | -100.11334 | 1331 ft | 0 kts | 211° |
| 2026-04-26 11:58 | 25.77882 | -100.11327 | 1330 ft | 2 kts | 211° |
| 2026-04-26 11:59 | 25.77896 | -100.11317 | 1330 ft | 2 kts | 211° |
| 2026-04-26 11:59 | 25.77910 | -100.11308 | 1330 ft | 2 kts | 211° |
| 2026-04-26 11:59 | 25.77924 | -100.11299 | 1333 ft | 2 kts | 212° |
| 2026-04-26 11:59 | 25.77938 | -100.11291 | 1330 ft | 2 kts | 190° |
| 2026-04-26 12:00 | 25.77954 | -100.11290 | 1330 ft | 2 kts | 156° |
| 2026-04-26 12:00 | 25.77960 | -100.11292 | 1331 ft | 0 kts | 123° |
| 2026-04-26 12:00 | 25.77957 | -100.11287 | 1331 ft | 4 kts | 122° |
| 2026-04-26 12:00 | 25.77930 | -100.11234 | 1333 ft | 12 kts | 119° |
| 2026-04-26 12:01 | 25.77874 | -100.11138 | 1333 ft | 16 kts | 120° |
| 2026-04-26 12:01 | 25.77786 | -100.10975 | 1331 ft | 34 kts | 121° |
| 2026-04-26 12:01 | 25.77657 | -100.10739 | 1335 ft | 38 kts | 121° |
| 2026-04-26 12:01 | 25.77514 | -100.10476 | 1335 ft | 41 kts | 121° |
| 2026-04-26 12:02 | 25.77358 | -100.10193 | 1334 ft | 45 kts | 121° |
| 2026-04-26 12:02 | 25.77247 | -100.09992 | 1331 ft | 46 kts | 121° |
| 2026-04-26 12:02 | 25.77151 | -100.09818 | 1331 ft | 6 kts | 119° |
| 2026-04-26 12:02 | 25.77183 | -100.09754 | 1331 ft | 17 kts | 14° |
| 2026-04-26 12:03 | 25.77287 | -100.09688 | 1331 ft | 9 kts | 3° |
| 2026-04-26 12:03 | 25.77366 | -100.09815 | 1331 ft | 53 kts | 300° |
| 2026-04-26 12:03 | 25.77703 | -100.10430 | 1333 ft | 130 kts | 301° |
| 2026-04-26 12:03 | 25.78276 | -100.11472 | 1414 ft | 180 kts | 301° |
| 2026-04-26 12:04 | 25.78967 | -100.12730 | 1999 ft | 198 kts | 301° |
| 2026-04-26 12:04 | 25.79727 | -100.14107 | 2722 ft | 221 kts | 302° |
| 2026-04-26 12:04 | 25.80568 | -100.15636 | 3461 ft | 243 kts | 302° |
| 2026-04-26 12:04 | 25.81495 | -100.17313 | 4235 ft | 265 kts | 303° |
| 2026-04-26 12:05 | 25.82481 | -100.19098 | 4974 ft | 286 kts | 303° |
| 2026-04-26 12:05 | 25.83440 | -100.21127 | 5575 ft | 310 kts | 288° |
| 2026-04-26 12:05 | 25.83672 | -100.23580 | 6021 ft | 334 kts | 262° |
| 2026-04-26 12:05 | 25.82844 | -100.26070 | 6198 ft | 351 kts | 234° |
| 2026-04-26 12:06 | 25.81083 | -100.27954 | 6333 ft | 365 kts | 214° |
| 2026-04-26 12:06 | 25.78904 | -100.29538 | 6465 ft | 382 kts | 210° |
| 2026-04-26 12:06 | 25.76568 | -100.31029 | 6803 ft | 390 kts | 206° |
| 2026-04-26 12:06 | 25.73982 | -100.31902 | 7282 ft | 393 kts | 184° |
| 2026-04-26 12:07 | 25.71218 | -100.31672 | 7743 ft | 396 kts | 168° |
| 2026-04-26 12:07 | 25.69447 | -100.31155 | 8032 ft | 399 kts | 162° |
| 2026-04-26 12:07 | 25.66848 | -100.30044 | 8461 ft | 403 kts | 156° |
| 2026-04-26 12:07 | 25.63423 | -100.28301 | 9045 ft | 407 kts | 155° |
| 2026-04-26 12:08 | 25.61714 | -100.27432 | 9328 ft | 409 kts | 156° |
| 2026-04-26 12:08 | 25.59086 | -100.26173 | 9735 ft | 413 kts | 158° |
| 2026-04-26 12:08 | 25.56400 | -100.24994 | 10166 ft | 416 kts | 160° |
| 2026-04-26 12:08 | 25.53669 | -100.23877 | 10587 ft | 421 kts | 161° |
| 2026-04-26 12:09 | 25.50889 | -100.22790 | 10961 ft | 426 kts | 162° |
| 2026-04-26 12:09 | 25.48065 | -100.21707 | 11300 ft | 432 kts | 161° |
| 2026-04-26 12:09 | 25.45210 | -100.20607 | 11671 ft | 437 kts | 161° |
| 2026-04-26 12:09 | 25.42322 | -100.19480 | 12090 ft | 442 kts | 161° |
| 2026-04-26 12:10 | 25.39408 | -100.18330 | 12537 ft | 447 kts | 161° |
| 2026-04-26 12:10 | 25.36477 | -100.17161 | 13015 ft | 449 kts | 161° |
| 2026-04-26 12:10 | 25.33525 | -100.15978 | 13441 ft | 451 kts | 161° |
| 2026-04-26 12:10 | 25.30578 | -100.14792 | 13964 ft | 452 kts | 161° |
| 2026-04-26 12:11 | 25.27613 | -100.13600 | 14419 ft | 453 kts | 161° |
| 2026-04-26 12:11 | 25.24680 | -100.12427 | 14868 ft | 455 kts | 161° |
| 2026-04-26 12:11 | 25.21696 | -100.11241 | 15287 ft | 458 kts | 162° |
| 2026-04-26 12:11 | 25.18690 | -100.10050 | 15715 ft | 459 kts | 161° |
| 2026-04-26 12:12 | 25.15678 | -100.08857 | 16167 ft | 461 kts | 162° |
| 2026-04-26 12:12 | 25.12660 | -100.07661 | 16623 ft | 461 kts | 162° |
| 2026-04-26 12:12 | 25.09629 | -100.06462 | 17073 ft | 464 kts | 162° |
| 2026-04-26 12:12 | 25.07614 | -100.05666 | 17377 ft | 465 kts | 162° |
| 2026-04-26 12:13 | 25.03515 | -100.04044 | 17962 ft | 468 kts | 162° |
| 2026-04-26 12:13 | 25.00439 | -100.02823 | 18340 ft | 471 kts | 162° |
| 2026-04-26 12:13 | 24.97346 | -100.01595 | 18731 ft | 474 kts | 162° |
| 2026-04-26 12:13 | 24.94197 | -100.00518 | 19105 ft | 474 kts | 171° |
| 2026-04-26 12:14 | 24.90926 | -100.00019 | 19426 ft | 475 kts | 176° |
| 2026-04-26 12:14 | 24.87670 | -99.99624 | 19802 ft | 478 kts | 176° |
| 2026-04-26 12:14 | 24.84348 | -99.99234 | 20099 ft | 482 kts | 176° |
| 2026-04-26 12:14 | 24.81002 | -99.98847 | 20438 ft | 485 kts | 176° |
| 2026-04-26 12:15 | 24.77635 | -99.98457 | 20790 ft | 487 kts | 176° |
| 2026-04-26 12:15 | 24.74253 | -99.98062 | 21098 ft | 490 kts | 176° |
| 2026-04-26 12:15 | 24.70853 | -99.97642 | 21389 ft | 494 kts | 174° |
| 2026-04-26 12:15 | 24.67506 | -99.96706 | 21672 ft | 501 kts | 161° |
| 2026-04-26 12:16 | 24.64387 | -99.94936 | 21942 ft | 508 kts | 147° |
| 2026-04-26 12:16 | 24.61675 | -99.92427 | 22165 ft | 513 kts | 137° |
| 2026-04-26 12:16 | 24.59105 | -99.89678 | 22466 ft | 515 kts | 137° |
| 2026-04-26 12:16 | 24.56535 | -99.86920 | 22769 ft | 517 kts | 137° |
| 2026-04-26 12:17 | 24.53957 | -99.84156 | 23055 ft | 519 kts | 137° |
| 2026-04-26 12:17 | 24.51361 | -99.81377 | 23298 ft | 522 kts | 137° |
| 2026-04-26 12:17 | 24.48754 | -99.78592 | 23553 ft | 524 kts | 137° |
| 2026-04-26 12:17 | 24.46128 | -99.75791 | 23822 ft | 526 kts | 137° |
| 2026-04-26 12:18 | 24.43528 | -99.73025 | 24101 ft | 528 kts | 137° |
| 2026-04-26 12:18 | 24.40891 | -99.70218 | 24465 ft | 528 kts | 137° |
| 2026-04-26 12:18 | 24.38258 | -99.67411 | 24927 ft | 527 kts | 137° |
| 2026-04-26 12:18 | 24.35623 | -99.64602 | 25314 ft | 528 kts | 137° |
| 2026-04-26 12:19 | 24.32994 | -99.61803 | 25713 ft | 527 kts | 137° |
| 2026-04-26 12:19 | 24.30364 | -99.59003 | 26071 ft | 527 kts | 138° |
| 2026-04-26 12:19 | 24.27726 | -99.56198 | 26454 ft | 528 kts | 137° |
| 2026-04-26 12:19 | 24.25089 | -99.53397 | 26824 ft | 528 kts | 138° |
| 2026-04-26 12:20 | 24.22447 | -99.50597 | 27193 ft | 528 kts | 138° |
| 2026-04-26 12:20 | 24.19805 | -99.47800 | 27585 ft | 528 kts | 138° |
| 2026-04-26 12:20 | 24.17156 | -99.44996 | 27970 ft | 528 kts | 138° |
| 2026-04-26 12:20 | 24.14551 | -99.42239 | 28344 ft | 528 kts | 138° |
| 2026-04-26 12:21 | 24.11902 | -99.39437 | 28725 ft | 528 kts | 138° |
| 2026-04-26 12:21 | 24.09261 | -99.36644 | 29122 ft | 529 kts | 138° |
| 2026-04-26 12:21 | 24.06612 | -99.33845 | 29516 ft | 528 kts | 139° |
| 2026-04-26 12:21 | 24.03971 | -99.31056 | 29907 ft | 528 kts | 139° |
| 2026-04-26 12:22 | 24.01327 | -99.28261 | 30298 ft | 528 kts | 139° |
| 2026-04-26 12:22 | 23.98687 | -99.25473 | 30691 ft | 528 kts | 139° |
| 2026-04-26 12:22 | 23.96040 | -99.22680 | 31076 ft | 528 kts | 139° |
| 2026-04-26 12:22 | 23.93398 | -99.19901 | 31457 ft | 527 kts | 139° |
| 2026-04-26 12:23 | 23.90755 | -99.17121 | 31863 ft | 527 kts | 139° |
| 2026-04-26 12:23 | 23.88116 | -99.14343 | 32231 ft | 527 kts | 139° |
| 2026-04-26 12:23 | 23.85474 | -99.11559 | 32591 ft | 526 kts | 139° |
| 2026-04-26 12:23 | 23.82838 | -99.08786 | 32942 ft | 526 kts | 139° |
| 2026-04-26 12:24 | 23.80195 | -99.06011 | 33305 ft | 526 kts | 139° |
| 2026-04-26 12:24 | 23.77551 | -99.03239 | 33688 ft | 525 kts | 139° |
| 2026-04-26 12:24 | 23.74955 | -99.00519 | 34062 ft | 525 kts | 139° |
| 2026-04-26 12:25 | 23.69579 | -98.95146 | 34750 ft | 521 kts | 147° |
| 2026-04-26 12:25 | 23.66645 | -98.92832 | 35074 ft | 521 kts | 147° |
| 2026-04-26 12:25 | 23.63699 | -98.90522 | 35415 ft | 521 kts | 148° |
| 2026-04-26 12:25 | 23.60753 | -98.88217 | 35745 ft | 522 kts | 148° |
| 2026-04-26 12:26 | 23.57801 | -98.85912 | 36078 ft | 521 kts | 147° |
| 2026-04-26 12:26 | 23.54847 | -98.83606 | 36375 ft | 522 kts | 148° |
| 2026-04-26 12:26 | 23.51891 | -98.81298 | 36655 ft | 522 kts | 147° |
| 2026-04-26 12:26 | 23.48936 | -98.78990 | 36797 ft | 523 kts | 147° |
| 2026-04-26 12:27 | 23.43032 | -98.74383 | 36831 ft | 519 kts | 148° |
| 2026-04-26 12:27 | 23.37177 | -98.69810 | 36835 ft | 516 kts | 147° |
| 2026-04-26 12:28 | 23.31348 | -98.65268 | 36827 ft | 515 kts | 147° |
| 2026-04-26 12:28 | 23.25524 | -98.60730 | 36832 ft | 515 kts | 148° |
| 2026-04-26 12:29 | 23.19737 | -98.56232 | 36831 ft | 515 kts | 147° |
| 2026-04-26 12:30 | 23.10995 | -98.49446 | 36842 ft | 515 kts | 147° |
| 2026-04-26 12:30 | 23.05159 | -98.44927 | 36848 ft | 515 kts | 147° |
| 2026-04-26 12:31 | 22.96408 | -98.38161 | 36855 ft | 515 kts | 147° |
| 2026-04-26 12:31 | 22.90575 | -98.33646 | 36858 ft | 515 kts | 147° |
| 2026-04-26 12:32 | 22.84741 | -98.29134 | 36855 ft | 515 kts | 147° |
| 2026-04-26 12:33 | 22.75982 | -98.22372 | 36849 ft | 515 kts | 147° |
| 2026-04-26 12:33 | 22.70141 | -98.17876 | 36844 ft | 515 kts | 147° |
| 2026-04-26 12:34 | 22.64305 | -98.13387 | 36842 ft | 514 kts | 147° |
| 2026-04-26 12:34 | 22.58475 | -98.08907 | 36833 ft | 513 kts | 147° |
| 2026-04-26 12:35 | 22.52648 | -98.04439 | 36833 ft | 513 kts | 147° |
| 2026-04-26 12:35 | 22.46857 | -97.99995 | 36827 ft | 513 kts | 147° |
| 2026-04-26 12:36 | 22.41033 | -97.95536 | 36824 ft | 513 kts | 147° |
| 2026-04-26 12:36 | 22.35202 | -97.91083 | 36819 ft | 512 kts | 147° |
| 2026-04-26 12:37 | 22.29369 | -97.86674 | 36819 ft | 511 kts | 151° |
| 2026-04-26 12:37 | 22.23098 | -97.83132 | 36821 ft | 508 kts | 156° |
| 2026-04-26 12:38 | 22.16775 | -97.79711 | 36821 ft | 508 kts | 156° |
| 2026-04-26 12:38 | 22.10447 | -97.76291 | 36822 ft | 509 kts | 156° |
| 2026-04-26 12:39 | 22.04120 | -97.72881 | 36817 ft | 508 kts | 156° |
| 2026-04-26 12:39 | 21.97787 | -97.69477 | 36816 ft | 509 kts | 156° |
| 2026-04-26 12:40 | 21.91495 | -97.66089 | 36832 ft | 508 kts | 156° |
| 2026-04-26 12:40 | 21.85124 | -97.62659 | 36834 ft | 508 kts | 156° |
| 2026-04-26 12:41 | 21.78832 | -97.59283 | 36826 ft | 508 kts | 156° |
| 2026-04-26 12:41 | 21.72508 | -97.55881 | 36824 ft | 508 kts | 156° |
| 2026-04-26 12:42 | 21.66182 | -97.52486 | 36827 ft | 507 kts | 156° |
| 2026-04-26 12:42 | 21.59867 | -97.49106 | 36837 ft | 507 kts | 156° |
| 2026-04-26 12:43 | 21.53543 | -97.45724 | 36840 ft | 507 kts | 156° |
| 2026-04-26 12:43 | 21.47220 | -97.42346 | 36844 ft | 507 kts | 156° |
| 2026-04-26 12:44 | 21.40947 | -97.38996 | 36850 ft | 507 kts | 156° |
| 2026-04-26 12:44 | 21.34640 | -97.35625 | 36853 ft | 507 kts | 156° |
| 2026-04-26 12:45 | 21.28331 | -97.32247 | 36857 ft | 507 kts | 156° |
| 2026-04-26 12:45 | 21.22026 | -97.28884 | 36864 ft | 506 kts | 156° |
| 2026-04-26 12:46 | 21.15713 | -97.25531 | 36868 ft | 506 kts | 156° |
| 2026-04-26 12:46 | 21.09401 | -97.22177 | 36870 ft | 506 kts | 156° |
| 2026-04-26 12:47 | 21.03084 | -97.18817 | 36876 ft | 506 kts | 156° |
| 2026-04-26 12:47 | 20.96785 | -97.15468 | 36878 ft | 505 kts | 156° |
| 2026-04-26 12:48 | 20.90529 | -97.12155 | 36878 ft | 505 kts | 156° |
| 2026-04-26 12:48 | 20.84227 | -97.08827 | 36873 ft | 504 kts | 156° |
| 2026-04-26 12:49 | 20.77938 | -97.05497 | 36874 ft | 504 kts | 156° |
| 2026-04-26 12:49 | 20.71646 | -97.02164 | 36877 ft | 504 kts | 156° |
| 2026-04-26 12:50 | 20.65340 | -96.98834 | 36882 ft | 504 kts | 156° |
| 2026-04-26 12:50 | 20.59049 | -96.95514 | 36885 ft | 504 kts | 156° |
| 2026-04-26 12:51 | 20.52762 | -96.92195 | 36880 ft | 504 kts | 156° |
| 2026-04-26 12:51 | 20.46476 | -96.88879 | 36873 ft | 504 kts | 156° |
| 2026-04-26 12:52 | 20.41241 | -96.86135 | 36878 ft | 504 kts | 156° |
| 2026-04-26 12:52 | 20.33941 | -96.82308 | 36867 ft | 503 kts | 156° |
| 2026-04-26 12:53 | 20.27666 | -96.79003 | 36868 ft | 503 kts | 156° |
| 2026-04-26 12:53 | 20.22406 | -96.76244 | 36867 ft | 503 kts | 156° |
| 2026-04-26 12:54 | 20.16121 | -96.72957 | 36867 ft | 503 kts | 156° |
| 2026-04-26 12:54 | 20.09904 | -96.69643 | 36859 ft | 504 kts | 155° |
| 2026-04-26 12:55 | 20.03656 | -96.66278 | 36861 ft | 503 kts | 155° |
| 2026-04-26 12:55 | 19.97396 | -96.62924 | 36914 ft | 504 kts | 155° |
| 2026-04-26 12:56 | 19.91125 | -96.59586 | 36936 ft | 503 kts | 155° |
| 2026-04-26 12:56 | 19.84865 | -96.56249 | 36936 ft | 503 kts | 155° |
| 2026-04-26 12:57 | 19.78611 | -96.52925 | 36923 ft | 502 kts | 155° |
| 2026-04-26 12:57 | 19.72367 | -96.49617 | 36916 ft | 502 kts | 155° |
| 2026-04-26 12:58 | 19.62998 | -96.44652 | 36897 ft | 502 kts | 155° |
| 2026-04-26 12:58 | 19.56756 | -96.41337 | 36883 ft | 502 kts | 155° |
| 2026-04-26 12:59 | 19.50509 | -96.38026 | 36881 ft | 502 kts | 155° |
| 2026-04-26 12:59 | 19.44293 | -96.34749 | 36868 ft | 502 kts | 155° |
| 2026-04-26 13:00 | 19.38052 | -96.31450 | 36863 ft | 501 kts | 155° |
| 2026-04-26 13:00 | 19.31804 | -96.28140 | 36856 ft | 501 kts | 155° |
| 2026-04-26 13:01 | 19.25559 | -96.24841 | 36854 ft | 501 kts | 155° |
| 2026-04-26 13:01 | 19.19309 | -96.21546 | 36849 ft | 501 kts | 154° |
| 2026-04-26 13:02 | 19.13680 | -96.17208 | 36847 ft | 503 kts | 134° |
| 2026-04-26 13:02 | 19.09484 | -96.11321 | 36852 ft | 502 kts | 123° |
| 2026-04-26 13:03 | 19.05591 | -96.05237 | 36854 ft | 502 kts | 123° |
| 2026-04-26 13:03 | 19.01640 | -95.99099 | 36852 ft | 502 kts | 123° |
| 2026-04-26 13:04 | 18.97734 | -95.93025 | 36848 ft | 502 kts | 123° |
| 2026-04-26 13:04 | 18.93812 | -95.86917 | 36851 ft | 502 kts | 123° |
| 2026-04-26 13:05 | 18.89886 | -95.80817 | 36859 ft | 502 kts | 123° |
| 2026-04-26 13:05 | 18.85957 | -95.74708 | 36863 ft | 503 kts | 123° |
| 2026-04-26 13:06 | 18.82022 | -95.68603 | 36875 ft | 502 kts | 123° |
| 2026-04-26 13:06 | 18.78088 | -95.62510 | 36878 ft | 502 kts | 123° |
| 2026-04-26 13:07 | 18.74165 | -95.56423 | 36881 ft | 501 kts | 123° |
| 2026-04-26 13:07 | 18.70589 | -95.50170 | 36769 ft | 502 kts | 112° |
| 2026-04-26 13:08 | 18.69148 | -95.46854 | 36969 ft | 489 kts | 119° |
| 2026-04-26 13:08 | 18.67021 | -95.44108 | 36624 ft | 489 kts | 146° |
| 2026-04-26 13:08 | 18.64054 | -95.42193 | 35235 ft | 509 kts | 148° |
| 2026-04-26 13:08 | 18.61114 | -95.40104 | 34847 ft | 501 kts | 147° |
| 2026-04-26 13:09 | 18.58412 | -95.37888 | 34866 ft | 486 kts | 133° |
| 2026-04-26 13:09 | 18.56516 | -95.34987 | 34868 ft | 482 kts | 111° |
| 2026-04-26 13:09 | 18.54345 | -95.28199 | 34870 ft | 497 kts | 106° |
| 2026-04-26 13:10 | 18.51547 | -95.21462 | 34868 ft | 510 kts | 123° |
| 2026-04-26 13:10 | 18.47529 | -95.15277 | 34867 ft | 512 kts | 124° |
| 2026-04-26 13:11 | 18.43494 | -95.09089 | 34857 ft | 512 kts | 124° |
| 2026-04-26 13:11 | 18.39463 | -95.02894 | 34857 ft | 513 kts | 124° |
| 2026-04-26 13:12 | 18.35435 | -94.96698 | 35101 ft | 510 kts | 124° |
| 2026-04-26 13:12 | 18.33435 | -94.93627 | 35596 ft | 506 kts | 124° |
| 2026-04-26 13:12 | 18.31450 | -94.90590 | 36090 ft | 501 kts | 124° |
| 2026-04-26 13:13 | 18.29486 | -94.87584 | 36579 ft | 496 kts | 124° |
| 2026-04-26 13:13 | 18.27524 | -94.84582 | 36802 ft | 498 kts | 124° |
| 2026-04-26 13:13 | 18.23562 | -94.78518 | 36859 ft | 505 kts | 124° |
| 2026-04-26 13:14 | 18.19592 | -94.72451 | 36849 ft | 503 kts | 124° |
| 2026-04-26 13:14 | 18.15626 | -94.66396 | 36850 ft | 503 kts | 124° |
| 2026-04-26 13:15 | 18.11692 | -94.60381 | 36849 ft | 503 kts | 124° |
| 2026-04-26 13:15 | 18.07051 | -94.54903 | 36851 ft | 502 kts | 136° |
| 2026-04-26 13:16 | 18.02042 | -94.49793 | 36851 ft | 502 kts | 136° |
| 2026-04-26 13:16 | 17.97048 | -94.44679 | 36856 ft | 501 kts | 136° |
| 2026-04-26 13:17 | 17.89556 | -94.37008 | 36862 ft | 501 kts | 136° |
| 2026-04-26 13:18 | 17.82062 | -94.29350 | 36863 ft | 501 kts | 136° |
| 2026-04-26 13:19 | 17.74560 | -94.21698 | 36867 ft | 502 kts | 136° |
| 2026-04-26 13:19 | 17.69555 | -94.16594 | 36875 ft | 502 kts | 136° |
| 2026-04-26 13:20 | 17.64574 | -94.11523 | 36881 ft | 502 kts | 136° |
| 2026-04-26 13:20 | 17.59575 | -94.06430 | 36887 ft | 501 kts | 136° |
| 2026-04-26 13:21 | 17.54572 | -94.01337 | 36892 ft | 501 kts | 136° |
| 2026-04-26 13:21 | 17.49563 | -93.96242 | 36911 ft | 501 kts | 136° |
| 2026-04-26 13:22 | 17.44552 | -93.91161 | 36915 ft | 501 kts | 137° |
| 2026-04-26 13:22 | 17.39537 | -93.86081 | 36932 ft | 501 kts | 137° |
| 2026-04-26 13:23 | 17.34526 | -93.81005 | 36937 ft | 501 kts | 136° |
| 2026-04-26 13:23 | 17.29525 | -93.75928 | 36942 ft | 500 kts | 136° |
| 2026-04-26 13:24 | 17.24515 | -93.70864 | 36948 ft | 500 kts | 136° |
| 2026-04-26 13:24 | 17.19512 | -93.65806 | 36959 ft | 500 kts | 136° |
| 2026-04-26 13:25 | 17.14521 | -93.60760 | 36966 ft | 499 kts | 136° |
| 2026-04-26 13:25 | 17.09553 | -93.55751 | 36977 ft | 499 kts | 137° |
| 2026-04-26 13:26 | 17.04559 | -93.50722 | 36985 ft | 498 kts | 136° |
| 2026-04-26 13:26 | 16.99570 | -93.45683 | 36995 ft | 497 kts | 136° |
| 2026-04-26 13:27 | 16.94590 | -93.40667 | 37004 ft | 497 kts | 136° |
| 2026-04-26 13:27 | 16.89607 | -93.35663 | 37013 ft | 497 kts | 136° |
| 2026-04-26 13:28 | 16.84623 | -93.30657 | 37023 ft | 497 kts | 136° |
| 2026-04-26 13:28 | 16.79640 | -93.25643 | 37031 ft | 496 kts | 136° |
| 2026-04-26 13:29 | 16.74697 | -93.20683 | 37037 ft | 496 kts | 136° |
| 2026-04-26 13:29 | 16.69722 | -93.15702 | 37040 ft | 496 kts | 136° |
| 2026-04-26 13:30 | 16.64749 | -93.10722 | 37037 ft | 495 kts | 136° |
| 2026-04-26 13:30 | 16.59772 | -93.05735 | 37044 ft | 495 kts | 136° |
| 2026-04-26 13:31 | 16.55065 | -93.00500 | 37034 ft | 495 kts | 129° |
| 2026-04-26 13:31 | 16.50696 | -92.94948 | 37028 ft | 495 kts | 129° |
| 2026-04-26 13:32 | 16.46351 | -92.89426 | 37022 ft | 495 kts | 129° |
| 2026-04-26 13:32 | 16.41977 | -92.83878 | 37018 ft | 495 kts | 129° |
| 2026-04-26 13:33 | 16.37602 | -92.78333 | 37013 ft | 495 kts | 129° |
| 2026-04-26 13:33 | 16.33224 | -92.72793 | 37007 ft | 495 kts | 129° |
| 2026-04-26 13:34 | 16.28843 | -92.67259 | 36999 ft | 495 kts | 129° |
| 2026-04-26 13:34 | 16.24464 | -92.61728 | 36991 ft | 495 kts | 129° |
| 2026-04-26 13:35 | 16.20114 | -92.56229 | 36985 ft | 495 kts | 129° |
| 2026-04-26 13:35 | 16.15737 | -92.50698 | 36976 ft | 495 kts | 129° |
| 2026-04-26 13:36 | 16.11365 | -92.45177 | 36973 ft | 495 kts | 129° |
| 2026-04-26 13:36 | 16.06982 | -92.39654 | 36966 ft | 496 kts | 129° |
| 2026-04-26 13:37 | 16.02580 | -92.34122 | 36964 ft | 495 kts | 129° |
| 2026-04-26 13:37 | 16.00406 | -92.31395 | 36945 ft | 484 kts | 129° |
| 2026-04-26 13:37 | 15.98286 | -92.28732 | 36947 ft | 475 kts | 129° |
| 2026-04-26 13:38 | 15.94807 | -92.24354 | 36943 ft | 471 kts | 129° |
| 2026-04-26 13:38 | 15.90643 | -92.19107 | 36943 ft | 470 kts | 129° |
| 2026-04-26 13:39 | 15.86471 | -92.13862 | 36944 ft | 471 kts | 129° |
| 2026-04-26 13:39 | 15.82295 | -92.08618 | 36943 ft | 471 kts | 129° |
| 2026-04-26 13:40 | 15.78175 | -92.03447 | 36508 ft | 461 kts | 129° |
| 2026-04-26 13:40 | 15.76115 | -92.00867 | 35791 ft | 466 kts | 129° |
| 2026-04-26 13:40 | 15.74035 | -91.98267 | 35060 ft | 470 kts | 129° |
| 2026-04-26 13:40 | 15.71933 | -91.95638 | 34333 ft | 475 kts | 129° |
| 2026-04-26 13:41 | 15.69968 | -91.92877 | 33597 ft | 477 kts | 123° |
| 2026-04-26 13:41 | 15.68099 | -91.90008 | 32857 ft | 481 kts | 123° |
| 2026-04-26 13:41 | 15.66217 | -91.87129 | 32117 ft | 483 kts | 123° |
| 2026-04-26 13:41 | 15.64326 | -91.84243 | 31368 ft | 485 kts | 123° |
| 2026-04-26 13:42 | 15.62445 | -91.81372 | 30604 ft | 486 kts | 123° |
| 2026-04-26 13:42 | 15.60545 | -91.78468 | 29862 ft | 486 kts | 124° |
| 2026-04-26 13:42 | 15.58645 | -91.75566 | 29107 ft | 486 kts | 123° |
| 2026-04-26 13:42 | 15.56744 | -91.72667 | 28352 ft | 485 kts | 123° |
| 2026-04-26 13:43 | 15.54845 | -91.69777 | 27601 ft | 484 kts | 123° |
| 2026-04-26 13:43 | 15.52952 | -91.66898 | 26857 ft | 482 kts | 123° |
| 2026-04-26 13:43 | 15.51074 | -91.64036 | 26113 ft | 480 kts | 123° |
| 2026-04-26 13:43 | 15.49198 | -91.61180 | 25351 ft | 477 kts | 123° |
| 2026-04-26 13:44 | 15.47335 | -91.58347 | 24626 ft | 474 kts | 122° |
| 2026-04-26 13:44 | 15.45482 | -91.55534 | 23910 ft | 471 kts | 122° |
| 2026-04-26 13:44 | 15.43652 | -91.52757 | 23425 ft | 461 kts | 122° |
| 2026-04-26 13:44 | 15.41868 | -91.50043 | 23017 ft | 451 kts | 122° |
| 2026-04-26 13:45 | 15.40126 | -91.47386 | 22619 ft | 440 kts | 122° |
| 2026-04-26 13:45 | 15.38419 | -91.44786 | 22223 ft | 432 kts | 122° |
| 2026-04-26 13:45 | 15.36742 | -91.42239 | 21846 ft | 423 kts | 122° |
| 2026-04-26 13:45 | 15.35095 | -91.39740 | 21471 ft | 417 kts | 122° |
| 2026-04-26 13:46 | 15.33471 | -91.37276 | 21112 ft | 410 kts | 122° |
| 2026-04-26 13:46 | 15.31879 | -91.34855 | 20771 ft | 403 kts | 122° |
| 2026-04-26 13:46 | 15.30310 | -91.32471 | 20415 ft | 397 kts | 122° |
| 2026-04-26 13:46 | 15.28789 | -91.30163 | 20068 ft | 390 kts | 122° |
| 2026-04-26 13:47 | 15.27269 | -91.27859 | 19726 ft | 384 kts | 122° |
| 2026-04-26 13:47 | 15.25771 | -91.25590 | 19386 ft | 379 kts | 122° |
| 2026-04-26 13:47 | 15.24294 | -91.23351 | 19046 ft | 374 kts | 122° |
| 2026-04-26 13:47 | 15.22835 | -91.21141 | 18723 ft | 369 kts | 122° |
| 2026-04-26 13:48 | 15.21397 | -91.18965 | 18400 ft | 363 kts | 122° |
| 2026-04-26 13:48 | 15.19983 | -91.16820 | 18101 ft | 358 kts | 122° |
| 2026-04-26 13:48 | 15.18587 | -91.14699 | 17790 ft | 354 kts | 122° |
| 2026-04-26 13:48 | 15.17208 | -91.12606 | 17472 ft | 349 kts | 122° |
| 2026-04-26 13:49 | 15.15843 | -91.10542 | 17167 ft | 346 kts | 122° |
| 2026-04-26 13:49 | 15.14488 | -91.08498 | 16884 ft | 342 kts | 122° |
| 2026-04-26 13:49 | 15.13148 | -91.06477 | 16577 ft | 338 kts | 122° |
| 2026-04-26 13:49 | 15.11839 | -91.04513 | 16290 ft | 335 kts | 122° |
| 2026-04-26 13:50 | 15.10498 | -91.02549 | 15993 ft | 332 kts | 123° |
| 2026-04-26 13:50 | 15.09159 | -91.00616 | 15696 ft | 329 kts | 123° |
| 2026-04-26 13:50 | 15.07835 | -90.98712 | 15399 ft | 324 kts | 123° |
| 2026-04-26 13:50 | 15.06530 | -90.96836 | 15106 ft | 319 kts | 123° |
| 2026-04-26 13:51 | 15.05236 | -90.94971 | 14750 ft | 319 kts | 123° |
| 2026-04-26 13:51 | 15.03946 | -90.93106 | 14383 ft | 318 kts | 123° |
| 2026-04-26 13:51 | 15.02662 | -90.91241 | 14017 ft | 318 kts | 123° |
| 2026-04-26 13:51 | 15.01381 | -90.89377 | 13653 ft | 317 kts | 123° |
| 2026-04-26 13:52 | 15.00102 | -90.87517 | 13287 ft | 317 kts | 123° |
| 2026-04-26 13:52 | 14.98826 | -90.85662 | 12919 ft | 316 kts | 123° |
| 2026-04-26 13:52 | 14.97553 | -90.83812 | 12556 ft | 315 kts | 123° |
| 2026-04-26 13:52 | 14.96286 | -90.81972 | 12198 ft | 314 kts | 123° |
| 2026-04-26 13:53 | 14.95021 | -90.80137 | 11839 ft | 313 kts | 123° |
| 2026-04-26 13:53 | 14.93759 | -90.78306 | 11484 ft | 312 kts | 124° |
| 2026-04-26 13:53 | 14.92502 | -90.76485 | 11125 ft | 311 kts | 124° |
| 2026-04-26 13:53 | 14.91250 | -90.74672 | 10758 ft | 309 kts | 124° |
| 2026-04-26 13:54 | 14.90000 | -90.72861 | 10400 ft | 309 kts | 124° |
| 2026-04-26 13:54 | 14.88751 | -90.71051 | 10043 ft | 308 kts | 124° |
| 2026-04-26 13:54 | 14.87515 | -90.69264 | 9683 ft | 300 kts | 125° |
| 2026-04-26 13:55 | 14.85177 | -90.65884 | 9016 ft | 278 kts | 125° |
| 2026-04-26 13:55 | 14.84442 | -90.64821 | 8798 ft | 272 kts | 125° |
| 2026-04-26 13:55 | 14.81988 | -90.61272 | 8090 ft | 250 kts | 125° |
| 2026-04-26 13:56 | 14.80997 | -90.59836 | 7806 ft | 241 kts | 125° |
| 2026-04-26 13:56 | 14.80044 | -90.58461 | 7528 ft | 231 kts | 125° |
| 2026-04-26 13:56 | 14.79129 | -90.57138 | 7263 ft | 221 kts | 125° |
| 2026-04-26 13:56 | 14.78233 | -90.55879 | 7054 ft | 215 kts | 129° |
| 2026-04-26 13:57 | 14.77402 | -90.54689 | 7182 ft | 192 kts | 124° |
| 2026-04-26 13:57 | 14.76669 | -90.53588 | 7097 ft | 177 kts | 125° |
| 2026-04-26 13:57 | 14.75976 | -90.52576 | 7052 ft | 169 kts | 125° |
| 2026-04-26 13:57 | 14.75297 | -90.51593 | 7039 ft | 167 kts | 126° |
| 2026-04-26 13:58 | 14.74624 | -90.50621 | 7031 ft | 166 kts | 126° |
| 2026-04-26 13:58 | 14.73876 | -90.49721 | 7026 ft | 165 kts | 140° |
| 2026-04-26 13:58 | 14.72894 | -90.49109 | 7028 ft | 166 kts | 158° |
| 2026-04-26 13:58 | 14.71773 | -90.48850 | 7030 ft | 166 kts | 176° |
| 2026-04-26 13:59 | 14.70620 | -90.48897 | 7033 ft | 166 kts | 187° |
| 2026-04-26 13:59 | 14.69491 | -90.49149 | 7039 ft | 167 kts | 197° |
| 2026-04-26 13:59 | 14.68398 | -90.49506 | 6954 ft | 168 kts | 197° |
| 2026-04-26 14:00 | 14.65087 | -90.50579 | 6237 ft | 164 kts | 198° |
| 2026-04-26 14:00 | 14.64015 | -90.50927 | 6003 ft | 163 kts | 197° |
| 2026-04-26 14:00 | 14.63288 | -90.51172 | 5871 ft | 163 kts | 197° |
| 2026-04-26 14:01 | 14.61847 | -90.51611 | 5604 ft | 164 kts | 196° |
| 2026-04-26 14:01 | 14.60766 | -90.51958 | 5296 ft | 162 kts | 198° |
| 2026-04-26 14:01 | 14.59700 | -90.52308 | 5008 ft | 160 kts | 197° |
| 2026-04-26 14:01 | 14.58704 | -90.52632 | 4903 ft | 136 kts | 198° |
| 2026-04-26 14:02 | 14.57917 | -90.52883 | 4876 ft | 95 kts | 197° |
| 2026-04-26 14:02 | 14.57463 | -90.53024 | 4859 ft | 27 kts | 196° |
| 2026-04-26 14:02 | 14.57432 | -90.52988 | 4858 ft | 8 kts | 104° |
| 2026-04-26 14:02 | 14.57441 | -90.52958 | 4859 ft | 3 kts | 19° |
| 2026-04-26 14:03 | 14.57465 | -90.52949 | 4860 ft | 12 kts | 19° |
| 2026-04-26 14:03 | 14.57775 | -90.52846 | 4871 ft | 62 kts | 18° |
| 2026-04-26 14:03 | 14.58157 | -90.52695 | 4883 ft | 56 kts | 33° |
| 2026-04-26 14:03 | 14.58482 | -90.52532 | 4893 ft | 49 kts | 10° |
| 2026-04-26 14:04 | 14.58670 | -90.52481 | 4895 ft | 2 kts | 77° |
| 2026-04-26 14:04 | 14.58668 | -90.52479 | 4898 ft | 0 kts | 101° |